sensor_id;sensor_type;location;lat;lon;timestamp;pressure;altitude;pressure_sealevel;temperature;humidity
46241;BME280;31961;52.416;-0.732;2022-08-07T00:00:04;101931.91;;;13.26;45.55
46241;BME280;31961;52.416;-0.732;2022-08-07T00:02:32;101926.74;;;14.01;45.14
46241;BME280;31961;52.416;-0.732;2022-08-07T00:04:59;101927.23;;;13.86;45.39
46241;BME280;31961;52.416;-0.732;2022-08-07T00:07:27;101927.66;;;13.67;45.67
46241;BME280;31961;52.416;-0.732;2022-08-07T00:09:54;101929.51;;;13.38;45.82
46241;BME280;31961;52.416;-0.732;2022-08-07T00:12:22;101926.35;;;13.23;45.56
46241;BME280;31961;52.416;-0.732;2022-08-07T00:14:50;101920.01;;;13.80;45.12
46241;BME280;31961;52.416;-0.732;2022-08-07T00:17:17;101922.89;;;13.61;45.84
46241;BME280;31961;52.416;-0.732;2022-08-07T00:19:45;101924.52;;;13.52;46.20
46241;BME280;31961;52.416;-0.732;2022-08-07T00:22:13;101925.20;;;13.44;46.38
46241;BME280;31961;52.416;-0.732;2022-08-07T00:24:40;101925.69;;;13.11;46.54
46241;BME280;31961;52.416;-0.732;2022-08-07T00:27:08;101925.06;;;13.45;46.48
46241;BME280;31961;52.416;-0.732;2022-08-07T00:29:35;101925.50;;;13.01;46.67
46241;BME280;31961;52.416;-0.732;2022-08-07T00:32:04;101928.13;;;12.88;46.96
46241;BME280;31961;52.416;-0.732;2022-08-07T00:34:31;101929.06;;;13.21;46.89
46241;BME280;31961;52.416;-0.732;2022-08-07T00:36:59;101923.92;;;13.21;45.87
46241;BME280;31961;52.416;-0.732;2022-08-07T00:39:26;101918.38;;;14.12;44.71
46241;BME280;31961;52.416;-0.732;2022-08-07T00:41:56;101917.90;;;13.91;44.37
46241;BME280;31961;52.416;-0.732;2022-08-07T00:44:24;101915.57;;;14.28;43.97
46241;BME280;31961;52.416;-0.732;2022-08-07T00:46:52;101915.03;;;13.58;45.10
46241;BME280;31961;52.416;-0.732;2022-08-07T00:49:19;101911.07;;;13.69;44.96
46241;BME280;31961;52.416;-0.732;2022-08-07T00:51:46;101914.97;;;13.50;46.22
46241;BME280;31961;52.416;-0.732;2022-08-07T00:54:13;101916.74;;;13.21;46.32
46241;BME280;31961;52.416;-0.732;2022-08-07T00:56:41;101916.59;;;13.36;45.72
46241;BME280;31961;52.416;-0.732;2022-08-07T00:59:08;101910.63;;;13.01;46.66
46241;BME280;31961;52.416;-0.732;2022-08-07T01:01:36;101911.68;;;12.78;47.56
46241;BME280;31961;52.416;-0.732;2022-08-07T01:04:05;101912.10;;;12.21;48.56
46241;BME280;31961;52.416;-0.732;2022-08-07T01:06:32;101914.82;;;12.53;48.48
46241;BME280;31961;52.416;-0.732;2022-08-07T01:09:01;101910.67;;;12.19;48.71
46241;BME280;31961;52.416;-0.732;2022-08-07T01:11:29;101910.21;;;12.27;49.07
46241;BME280;31961;52.416;-0.732;2022-08-07T01:13:56;101910.53;;;12.41;48.91
46241;BME280;31961;52.416;-0.732;2022-08-07T01:16:24;101912.72;;;12.51;48.82
46241;BME280;31961;52.416;-0.732;2022-08-07T01:18:52;101910.10;;;12.64;47.97
46241;BME280;31961;52.416;-0.732;2022-08-07T01:21:21;101905.03;;;12.98;47.89
46241;BME280;31961;52.416;-0.732;2022-08-07T01:23:47;101903.51;;;13.05;47.49
46241;BME280;31961;52.416;-0.732;2022-08-07T01:26:17;101902.95;;;13.04;47.04
46241;BME280;31961;52.416;-0.732;2022-08-07T01:28:46;101905.80;;;13.34;46.48
46241;BME280;31961;52.416;-0.732;2022-08-07T01:31:15;101904.77;;;12.99;46.61
46241;BME280;31961;52.416;-0.732;2022-08-07T01:33:42;101901.71;;;13.45;46.17
46241;BME280;31961;52.416;-0.732;2022-08-07T01:36:11;101903.61;;;13.37;45.81
46241;BME280;31961;52.416;-0.732;2022-08-07T01:38:39;101901.95;;;13.43;46.12
46241;BME280;31961;52.416;-0.732;2022-08-07T01:41:06;101902.95;;;12.98;47.21
46241;BME280;31961;52.416;-0.732;2022-08-07T01:43:35;101903.94;;;13.20;47.79
46241;BME280;31961;52.416;-0.732;2022-08-07T01:46:03;101902.76;;;12.60;48.10
46241;BME280;31961;52.416;-0.732;2022-08-07T01:48:30;101900.38;;;12.81;48.48
46241;BME280;31961;52.416;-0.732;2022-08-07T01:51:01;101898.84;;;12.59;48.76
46241;BME280;31961;52.416;-0.732;2022-08-07T01:53:32;101900.63;;;12.25;48.23
46241;BME280;31961;52.416;-0.732;2022-08-07T01:56:02;101902.19;;;12.26;48.43
46241;BME280;31961;52.416;-0.732;2022-08-07T01:58:33;101902.76;;;12.31;48.64
46241;BME280;31961;52.416;-0.732;2022-08-07T02:01:08;101901.48;;;11.89;49.39
46241;BME280;31961;52.416;-0.732;2022-08-07T02:03:39;101903.75;;;11.34;50.43
46241;BME280;31961;52.416;-0.732;2022-08-07T02:06:11;101897.12;;;11.51;50.21
46241;BME280;31961;52.416;-0.732;2022-08-07T02:08:41;101898.70;;;11.92;49.29
46241;BME280;31961;52.416;-0.732;2022-08-07T02:11:11;101896.07;;;12.04;48.85
46241;BME280;31961;52.416;-0.732;2022-08-07T02:13:40;101894.82;;;11.88;49.06
46241;BME280;31961;52.416;-0.732;2022-08-07T02:16:10;101893.64;;;12.01;49.30
46241;BME280;31961;52.416;-0.732;2022-08-07T02:18:39;101893.24;;;10.89;50.32
46241;BME280;31961;52.416;-0.732;2022-08-07T02:21:07;101892.72;;;12.04;49.20
46241;BME280;31961;52.416;-0.732;2022-08-07T02:23:37;101891.51;;;11.63;49.16
46241;BME280;31961;52.416;-0.732;2022-08-07T02:26:07;101889.80;;;11.53;50.12
46241;BME280;31961;52.416;-0.732;2022-08-07T02:28:36;101889.35;;;11.00;51.97
46241;BME280;31961;52.416;-0.732;2022-08-07T02:31:05;101889.32;;;10.54;52.92
46241;BME280;31961;52.416;-0.732;2022-08-07T02:33:35;101884.88;;;10.50;53.83
46241;BME280;31961;52.416;-0.732;2022-08-07T02:36:05;101877.96;;;10.84;53.15
46241;BME280;31961;52.416;-0.732;2022-08-07T02:38:36;101878.98;;;11.04;52.99
46241;BME280;31961;52.416;-0.732;2022-08-07T02:41:04;101881.14;;;10.66;53.79
46241;BME280;31961;52.416;-0.732;2022-08-07T02:43:34;101878.30;;;10.14;55.38
46241;BME280;31961;52.416;-0.732;2022-08-07T02:46:03;101877.83;;;9.92;56.54
46241;BME280;31961;52.416;-0.732;2022-08-07T02:48:31;101879.68;;;10.41;56.06
46241;BME280;31961;52.416;-0.732;2022-08-07T02:51:04;101879.53;;;10.76;54.83
46241;BME280;31961;52.416;-0.732;2022-08-07T02:53:34;101879.50;;;10.87;53.80
46241;BME280;31961;52.416;-0.732;2022-08-07T02:56:06;101881.58;;;10.39;54.22
46241;BME280;31961;52.416;-0.732;2022-08-07T02:58:35;101880.82;;;10.19;54.23
46241;BME280;31961;52.416;-0.732;2022-08-07T03:01:04;101877.02;;;11.11;52.91
46241;BME280;31961;52.416;-0.732;2022-08-07T03:03:35;101871.67;;;10.75;53.24
46241;BME280;31961;52.416;-0.732;2022-08-07T03:06:03;101871.45;;;10.95;52.96
46241;BME280;31961;52.416;-0.732;2022-08-07T03:08:32;101875.16;;;10.57;53.66
46241;BME280;31961;52.416;-0.732;2022-08-07T03:11:00;101875.16;;;10.65;53.45
46241;BME280;31961;52.416;-0.732;2022-08-07T03:13:28;101873.16;;;10.79;53.16
46241;BME280;31961;52.416;-0.732;2022-08-07T03:15:55;101872.14;;;11.01;52.53
46241;BME280;31961;52.416;-0.732;2022-08-07T03:18:23;101874.79;;;10.73;52.54
46241;BME280;31961;52.416;-0.732;2022-08-07T03:20:51;101872.28;;;10.73;52.89
46241;BME280;31961;52.416;-0.732;2022-08-07T03:23:19;101875.48;;;10.40;53.10
46241;BME280;31961;52.416;-0.732;2022-08-07T03:25:48;101870.67;;;10.93;52.43
46241;BME280;31961;52.416;-0.732;2022-08-07T03:28:16;101873.73;;;10.95;52.38
46241;BME280;31961;52.416;-0.732;2022-08-07T03:30:46;101873.39;;;10.90;52.47
46241;BME280;31961;52.416;-0.732;2022-08-07T03:33:14;101872.15;;;10.96;52.53
46241;BME280;31961;52.416;-0.732;2022-08-07T03:35:41;101872.71;;;10.61;53.80
46241;BME280;31961;52.416;-0.732;2022-08-07T03:38:10;101871.01;;;10.27;54.41
46241;BME280;31961;52.416;-0.732;2022-08-07T03:40:39;101871.29;;;9.49;55.47
46241;BME280;31961;52.416;-0.732;2022-08-07T03:43:07;101872.12;;;10.46;54.36
46241;BME280;31961;52.416;-0.732;2022-08-07T03:45:34;101867.13;;;10.16;54.47
46241;BME280;31961;52.416;-0.732;2022-08-07T03:48:02;101865.65;;;10.12;54.86
46241;BME280;31961;52.416;-0.732;2022-08-07T03:50:30;101864.17;;;10.12;55.03
46241;BME280;31961;52.416;-0.732;2022-08-07T03:52:57;101861.92;;;10.11;54.37
46241;BME280;31961;52.416;-0.732;2022-08-07T03:55:27;101859.11;;;10.03;53.94
46241;BME280;31961;52.416;-0.732;2022-08-07T03:57:55;101857.08;;;10.39;53.18
46241;BME280;31961;52.416;-0.732;2022-08-07T04:00:23;101854.21;;;9.98;53.97
46241;BME280;31961;52.416;-0.732;2022-08-07T04:02:51;101853.31;;;10.34;53.54
46241;BME280;31961;52.416;-0.732;2022-08-07T04:05:19;101853.86;;;10.12;53.36
46241;BME280;31961;52.416;-0.732;2022-08-07T04:07:47;101854.50;;;10.75;52.90
46241;BME280;31961;52.416;-0.732;2022-08-07T04:10:14;101855.40;;;10.05;53.46
46241;BME280;31961;52.416;-0.732;2022-08-07T04:12:42;101855.56;;;10.19;54.19
46241;BME280;31961;52.416;-0.732;2022-08-07T04:15:11;101853.09;;;9.86;54.70
46241;BME280;31961;52.416;-0.732;2022-08-07T04:17:41;101849.47;;;9.94;54.96
46241;BME280;31961;52.416;-0.732;2022-08-07T04:20:10;101848.72;;;9.94;54.65
46241;BME280;31961;52.416;-0.732;2022-08-07T04:22:39;101851.45;;;9.73;54.70
46241;BME280;31961;52.416;-0.732;2022-08-07T04:25:07;101854.43;;;9.79;55.13
46241;BME280;31961;52.416;-0.732;2022-08-07T04:27:35;101852.73;;;9.61;55.25
46241;BME280;31961;52.416;-0.732;2022-08-07T04:30:04;101850.28;;;9.18;56.06
46241;BME280;31961;52.416;-0.732;2022-08-07T04:32:33;101851.56;;;8.93;56.58
46241;BME280;31961;52.416;-0.732;2022-08-07T04:35:02;101851.45;;;9.25;56.45
46241;BME280;31961;52.416;-0.732;2022-08-07T04:37:31;101851.51;;;9.49;56.35
46241;BME280;31961;52.416;-0.732;2022-08-07T04:39:59;101845.40;;;9.45;56.44
46241;BME280;31961;52.416;-0.732;2022-08-07T04:42:26;101848.77;;;9.33;56.75
46241;BME280;31961;52.416;-0.732;2022-08-07T04:44:54;101850.50;;;8.93;57.11
46241;BME280;31961;52.416;-0.732;2022-08-07T04:47:28;101851.59;;;8.96;56.51
46241;BME280;31961;52.416;-0.732;2022-08-07T04:50:04;101847.94;;;9.43;56.18
46241;BME280;31961;52.416;-0.732;2022-08-07T04:52:40;101850.66;;;9.69;55.53
46241;BME280;31961;52.416;-0.732;2022-08-07T04:55:14;101848.39;;;9.54;55.54
46241;BME280;31961;52.416;-0.732;2022-08-07T04:57:50;101847.13;;;9.30;55.94
46241;BME280;31961;52.416;-0.732;2022-08-07T05:00:26;101850.96;;;9.19;56.43
46241;BME280;31961;52.416;-0.732;2022-08-07T05:03:05;101847.62;;;9.03;56.81
46241;BME280;31961;52.416;-0.732;2022-08-07T05:05:41;101850.44;;;9.30;56.54
46241;BME280;31961;52.416;-0.732;2022-08-07T05:08:14;101854.85;;;9.19;56.38
46241;BME280;31961;52.416;-0.732;2022-08-07T05:10:47;101857.18;;;9.29;55.31
46241;BME280;31961;52.416;-0.732;2022-08-07T05:13:27;101861.36;;;10.00;53.87
46241;BME280;31961;52.416;-0.732;2022-08-07T05:15:57;101863.44;;;10.41;53.62
46241;BME280;31961;52.416;-0.732;2022-08-07T05:18:28;101863.31;;;10.21;53.44
46241;BME280;31961;52.416;-0.732;2022-08-07T05:20:59;101861.43;;;10.60;52.98
46241;BME280;31961;52.416;-0.732;2022-08-07T05:23:32;101861.28;;;10.77;52.60
46241;BME280;31961;52.416;-0.732;2022-08-07T05:26:03;101866.14;;;11.01;52.33
46241;BME280;31961;52.416;-0.732;2022-08-07T05:28:33;101869.92;;;11.03;52.55
46241;BME280;31961;52.416;-0.732;2022-08-07T05:31:02;101868.49;;;10.43;53.80
46241;BME280;31961;52.416;-0.732;2022-08-07T05:33:33;101868.66;;;10.29;54.47
46241;BME280;31961;52.416;-0.732;2022-08-07T05:36:04;101866.77;;;11.13;52.75
46241;BME280;31961;52.416;-0.732;2022-08-07T05:38:33;101865.18;;;11.64;51.85
46241;BME280;31961;52.416;-0.732;2022-08-07T05:41:01;101868.89;;;11.52;51.23
46241;BME280;31961;52.416;-0.732;2022-08-07T05:43:29;101870.88;;;11.94;50.55
46241;BME280;31961;52.416;-0.732;2022-08-07T05:45:57;101874.33;;;11.80;50.44
46241;BME280;31961;52.416;-0.732;2022-08-07T05:48:25;101878.97;;;11.85;50.34
46241;BME280;31961;52.416;-0.732;2022-08-07T05:50:54;101884.63;;;12.23;49.95
46241;BME280;31961;52.416;-0.732;2022-08-07T05:53:22;101887.48;;;11.92;50.52
46241;BME280;31961;52.416;-0.732;2022-08-07T05:55:49;101895.50;;;12.58;49.84
46241;BME280;31961;52.416;-0.732;2022-08-07T05:58:17;101896.43;;;12.83;49.29
46241;BME280;31961;52.416;-0.732;2022-08-07T06:00:47;101897.49;;;12.64;49.96
46241;BME280;31961;52.416;-0.732;2022-08-07T06:03:16;101896.74;;;12.06;50.46
46241;BME280;31961;52.416;-0.732;2022-08-07T06:05:45;101898.33;;;12.23;51.09
46241;BME280;31961;52.416;-0.732;2022-08-07T06:08:15;101896.77;;;12.86;50.17
46241;BME280;31961;52.416;-0.732;2022-08-07T06:10:43;101898.57;;;12.61;50.61
46241;BME280;31961;52.416;-0.732;2022-08-07T06:13:11;101902.98;;;12.93;50.38
46241;BME280;31961;52.416;-0.732;2022-08-07T06:15:39;101900.65;;;13.72;49.26
46241;BME280;31961;52.416;-0.732;2022-08-07T06:18:07;101894.23;;;13.45;49.00
46241;BME280;31961;52.416;-0.732;2022-08-07T06:20:35;101897.75;;;13.76;48.58
46241;BME280;31961;52.416;-0.732;2022-08-07T06:23:04;101897.90;;;14.02;48.40
46241;BME280;31961;52.416;-0.732;2022-08-07T06:25:34;101895.96;;;14.40;48.00
46241;BME280;31961;52.416;-0.732;2022-08-07T06:28:03;101890.78;;;14.43;47.54
46241;BME280;31961;52.416;-0.732;2022-08-07T06:30:30;101887.23;;;14.40;47.46
46241;BME280;31961;52.416;-0.732;2022-08-07T06:32:57;101885.92;;;14.89;47.23
46241;BME280;31961;52.416;-0.732;2022-08-07T06:35:24;101884.83;;;14.84;47.01
46241;BME280;31961;52.416;-0.732;2022-08-07T06:37:52;101880.68;;;15.32;46.61
46241;BME280;31961;52.416;-0.732;2022-08-07T06:40:19;101877.94;;;14.73;46.38
46241;BME280;31961;52.416;-0.732;2022-08-07T06:42:47;101883.14;;;15.46;46.32
46241;BME280;31961;52.416;-0.732;2022-08-07T06:45:17;101890.63;;;15.15;46.30
46241;BME280;31961;52.416;-0.732;2022-08-07T06:47:47;101880.79;;;15.89;46.05
46241;BME280;31961;52.416;-0.732;2022-08-07T06:50:15;101884.79;;;15.91;45.68
46241;BME280;31961;52.416;-0.732;2022-08-07T06:52:45;101883.69;;;15.58;45.76
46241;BME280;31961;52.416;-0.732;2022-08-07T06:55:17;101884.63;;;15.31;46.37
46241;BME280;31961;52.416;-0.732;2022-08-07T06:57:46;101883.55;;;16.20;47.37
46241;BME280;31961;52.416;-0.732;2022-08-07T07:00:16;101883.91;;;15.77;48.07
46241;BME280;31961;52.416;-0.732;2022-08-07T07:02:43;101881.63;;;15.61;47.14
46241;BME280;31961;52.416;-0.732;2022-08-07T07:05:12;101881.23;;;15.99;47.62
46241;BME280;31961;52.416;-0.732;2022-08-07T07:07:44;101881.76;;;16.26;48.03
46241;BME280;31961;52.416;-0.732;2022-08-07T07:10:12;101881.91;;;15.32;47.36
46241;BME280;31961;52.416;-0.732;2022-08-07T07:12:45;101879.04;;;15.47;47.67
46241;BME280;31961;52.416;-0.732;2022-08-07T07:15:17;101882.97;;;15.39;47.57
46241;BME280;31961;52.416;-0.732;2022-08-07T07:17:51;101881.52;;;15.57;48.15
46241;BME280;31961;52.416;-0.732;2022-08-07T07:20:23;101877.13;;;15.65;48.90
46241;BME280;31961;52.416;-0.732;2022-08-07T07:22:53;101883.54;;;15.03;48.26
46241;BME280;31961;52.416;-0.732;2022-08-07T07:25:21;101881.47;;;15.82;45.71
46241;BME280;31961;52.416;-0.732;2022-08-07T07:27:52;101882.48;;;14.88;48.18
46241;BME280;31961;52.416;-0.732;2022-08-07T07:30:25;101880.34;;;15.79;47.43
46241;BME280;31961;52.416;-0.732;2022-08-07T07:32:56;101881.51;;;15.45;46.72
46241;BME280;31961;52.416;-0.732;2022-08-07T07:35:26;101885.76;;;14.27;49.17
46241;BME280;31961;52.416;-0.732;2022-08-07T07:37:54;101888.80;;;13.74;51.21
46241;BME280;31961;52.416;-0.732;2022-08-07T07:40:22;101888.21;;;14.89;48.82
46241;BME280;31961;52.416;-0.732;2022-08-07T07:42:53;101884.09;;;15.94;45.14
46241;BME280;31961;52.416;-0.732;2022-08-07T07:45:25;101884.61;;;15.53;46.04
46241;BME280;31961;52.416;-0.732;2022-08-07T07:47:53;101881.57;;;15.97;45.38
46241;BME280;31961;52.416;-0.732;2022-08-07T07:50:24;101885.38;;;14.25;49.11
46241;BME280;31961;52.416;-0.732;2022-08-07T07:52:54;101886.83;;;14.73;47.59
46241;BME280;31961;52.416;-0.732;2022-08-07T07:55:24;101885.37;;;14.06;49.00
46241;BME280;31961;52.416;-0.732;2022-08-07T07:57:54;101884.98;;;14.32;48.99
46241;BME280;31961;52.416;-0.732;2022-08-07T08:00:24;101889.85;;;14.81;48.71
46241;BME280;31961;52.416;-0.732;2022-08-07T08:02:55;101890.44;;;14.20;50.73
46241;BME280;31961;52.416;-0.732;2022-08-07T08:05:23;101889.48;;;14.35;50.26
46241;BME280;31961;52.416;-0.732;2022-08-07T08:07:51;101885.39;;;15.07;48.00
46241;BME280;31961;52.416;-0.732;2022-08-07T08:10:19;101881.86;;;16.61;44.80
46241;BME280;31961;52.416;-0.732;2022-08-07T08:12:47;101877.44;;;16.12;44.99
46241;BME280;31961;52.416;-0.732;2022-08-07T08:15:16;101874.64;;;15.64;45.88
46241;BME280;31961;52.416;-0.732;2022-08-07T08:17:45;101876.92;;;16.76;43.29
46241;BME280;31961;52.416;-0.732;2022-08-07T08:20:14;101875.32;;;15.66;44.54
46241;BME280;31961;52.416;-0.732;2022-08-07T08:22:45;101872.78;;;15.92;45.32
46241;BME280;31961;52.416;-0.732;2022-08-07T08:25:13;101877.55;;;16.29;44.46
46241;BME280;31961;52.416;-0.732;2022-08-07T08:27:43;101874.01;;;16.45;43.78
46241;BME280;31961;52.416;-0.732;2022-08-07T08:30:12;101873.42;;;16.86;42.70
46241;BME280;31961;52.416;-0.732;2022-08-07T08:32:42;101872.04;;;16.47;44.36
46241;BME280;31961;52.416;-0.732;2022-08-07T08:35:15;101880.18;;;14.91;47.25
46241;BME280;31961;52.416;-0.732;2022-08-07T08:37:46;101876.14;;;14.77;48.10
46241;BME280;31961;52.416;-0.732;2022-08-07T08:40:20;101871.04;;;14.83;47.68
46241;BME280;31961;52.416;-0.732;2022-08-07T08:42:55;101867.88;;;14.64;48.50
46241;BME280;31961;52.416;-0.732;2022-08-07T08:45:30;101860.84;;;15.35;48.38
46241;BME280;31961;52.416;-0.732;2022-08-07T08:48:07;101853.52;;;16.65;45.06
46241;BME280;31961;52.416;-0.732;2022-08-07T08:50:41;101843.60;;;17.65;41.87
46241;BME280;31961;52.416;-0.732;2022-08-07T08:53:21;101847.49;;;17.53;42.65
46241;BME280;31961;52.416;-0.732;2022-08-07T08:55:55;101853.61;;;16.75;44.36
46241;BME280;31961;52.416;-0.732;2022-08-07T08:58:33;101850.20;;;15.79;46.87
46241;BME280;31961;52.416;-0.732;2022-08-07T09:01:08;101851.80;;;15.76;47.88
46241;BME280;31961;52.416;-0.732;2022-08-07T09:03:49;101858.49;;;15.02;49.09
46241;BME280;31961;52.416;-0.732;2022-08-07T09:06:36;101854.60;;;15.82;46.78
46241;BME280;31961;52.416;-0.732;2022-08-07T09:09:34;101860.01;;;15.00;48.05
46241;BME280;31961;52.416;-0.732;2022-08-07T09:12:20;101858.01;;;15.20;48.62
46241;BME280;31961;52.416;-0.732;2022-08-07T09:15:14;101855.43;;;15.77;47.79
46241;BME280;31961;52.416;-0.732;2022-08-07T09:17:56;101852.09;;;16.60;45.85
46241;BME280;31961;52.416;-0.732;2022-08-07T09:20:44;101847.17;;;16.10;45.51
46241;BME280;31961;52.416;-0.732;2022-08-07T09:23:28;101843.83;;;16.39;45.41
46241;BME280;31961;52.416;-0.732;2022-08-07T09:26:29;101839.64;;;16.21;46.25
46241;BME280;31961;52.416;-0.732;2022-08-07T09:29:05;101840.96;;;16.48;45.02
46241;BME280;31961;52.416;-0.732;2022-08-07T09:31:44;101837.53;;;16.72;44.13
46241;BME280;31961;52.416;-0.732;2022-08-07T09:34:28;101842.19;;;16.88;44.50
46241;BME280;31961;52.416;-0.732;2022-08-07T09:37:05;101836.06;;;16.29;45.23
46241;BME280;31961;52.416;-0.732;2022-08-07T09:39:45;101839.93;;;16.98;44.07
46241;BME280;31961;52.416;-0.732;2022-08-07T09:42:33;101832.36;;;16.39;44.55
46241;BME280;31961;52.416;-0.732;2022-08-07T09:45:14;101832.01;;;16.42;45.77
46241;BME280;31961;52.416;-0.732;2022-08-07T09:48:00;101829.48;;;16.81;45.58
46241;BME280;31961;52.416;-0.732;2022-08-07T09:50:45;101829.53;;;16.38;45.22
46241;BME280;31961;52.416;-0.732;2022-08-07T09:53:19;101832.28;;;16.14;45.22
46241;BME280;31961;52.416;-0.732;2022-08-07T09:56:07;101822.74;;;16.84;43.29
46241;BME280;31961;52.416;-0.732;2022-08-07T09:58:59;101817.76;;;16.46;44.28
46241;BME280;31961;52.416;-0.732;2022-08-07T10:01:43;101811.24;;;16.00;44.60
46241;BME280;31961;52.416;-0.732;2022-08-07T10:04:30;101815.96;;;15.75;45.69
46241;BME280;31961;52.416;-0.732;2022-08-07T10:07:12;101810.15;;;15.83;46.56
46241;BME280;31961;52.416;-0.732;2022-08-07T10:09:50;101804.31;;;16.21;46.13
46241;BME280;31961;52.416;-0.732;2022-08-07T10:12:46;101807.46;;;17.25;43.95
46241;BME280;31961;52.416;-0.732;2022-08-07T10:15:59;101801.85;;;17.37;43.31
46241;BME280;31961;52.416;-0.732;2022-08-07T10:19:01;101805.65;;;17.39;42.49
46241;BME280;31961;52.416;-0.732;2022-08-07T10:21:43;101803.49;;;17.09;43.20
46241;BME280;31961;52.416;-0.732;2022-08-07T10:24:30;101817.35;;;16.56;43.90
46241;BME280;31961;52.416;-0.732;2022-08-07T10:27:19;101801.76;;;17.63;42.53
46241;BME280;31961;52.416;-0.732;2022-08-07T10:30:07;101796.73;;;17.20;42.45
46241;BME280;31961;52.416;-0.732;2022-08-07T10:32:52;101796.51;;;17.61;42.26
46241;BME280;31961;52.416;-0.732;2022-08-07T10:35:29;101804.53;;;16.66;43.63
46241;BME280;31961;52.416;-0.732;2022-08-07T10:38:13;101804.02;;;16.83;43.72
46241;BME280;31961;52.416;-0.732;2022-08-07T10:40:54;101802.09;;;16.41;44.27
46241;BME280;31961;52.416;-0.732;2022-08-07T10:43:30;101785.41;;;16.94;42.52
46241;BME280;31961;52.416;-0.732;2022-08-07T10:46:04;101778.54;;;18.28;40.79
46241;BME280;31961;52.416;-0.732;2022-08-07T10:48:41;101777.71;;;17.67;41.81
46241;BME280;31961;52.416;-0.732;2022-08-07T10:51:19;101781.46;;;18.42;41.14
46241;BME280;31961;52.416;-0.732;2022-08-07T10:53:55;101785.63;;;17.81;40.82
46241;BME280;31961;52.416;-0.732;2022-08-07T10:56:34;101780.77;;;18.38;39.51
46241;BME280;31961;52.416;-0.732;2022-08-07T10:59:16;101787.14;;;18.20;39.84
46241;BME280;31961;52.416;-0.732;2022-08-07T11:01:57;101777.80;;;18.24;39.57
46241;BME280;31961;52.416;-0.732;2022-08-07T11:04:43;101779.69;;;18.58;38.88
46241;BME280;31961;52.416;-0.732;2022-08-07T11:07:39;101787.89;;;17.72;40.53
46241;BME280;31961;52.416;-0.732;2022-08-07T11:10:16;101772.82;;;18.64;38.72
46241;BME280;31961;52.416;-0.732;2022-08-07T11:13:01;101768.92;;;18.60;37.91
46241;BME280;31961;52.416;-0.732;2022-08-07T11:15:37;101764.40;;;19.56;37.42
46241;BME280;31961;52.416;-0.732;2022-08-07T11:18:20;101762.72;;;18.57;38.94
46241;BME280;31961;52.416;-0.732;2022-08-07T11:20:58;101760.09;;;17.66;39.91
46241;BME280;31961;52.416;-0.732;2022-08-07T11:23:46;101760.30;;;18.06;39.28
46241;BME280;31961;52.416;-0.732;2022-08-07T11:26:30;101764.85;;;17.15;41.86
46241;BME280;31961;52.416;-0.732;2022-08-07T11:29:05;101747.84;;;17.74;40.06
46241;BME280;31961;52.416;-0.732;2022-08-07T11:31:42;101750.84;;;18.21;39.45
46241;BME280;31961;52.416;-0.732;2022-08-07T11:34:23;101748.68;;;18.68;38.58
46241;BME280;31961;52.416;-0.732;2022-08-07T11:37:01;101751.04;;;18.71;37.89
46241;BME280;31961;52.416;-0.732;2022-08-07T11:39:53;101748.73;;;18.28;39.19
46241;BME280;31961;52.416;-0.732;2022-08-07T11:42:40;101743.88;;;19.00;38.42
46241;BME280;31961;52.416;-0.732;2022-08-07T11:45:27;101737.73;;;19.19;36.53
46241;BME280;31961;52.416;-0.732;2022-08-07T11:48:15;101737.70;;;19.24;37.15
46241;BME280;31961;52.416;-0.732;2022-08-07T11:50:57;101740.67;;;18.64;37.71
46241;BME280;31961;52.416;-0.732;2022-08-07T11:53:39;101736.91;;;19.14;37.97
46241;BME280;31961;52.416;-0.732;2022-08-07T11:56:23;101733.93;;;18.64;37.72
46241;BME280;31961;52.416;-0.732;2022-08-07T11:59:11;101721.12;;;19.20;36.79
46241;BME280;31961;52.416;-0.732;2022-08-07T12:01:47;101726.48;;;19.72;35.96
46241;BME280;31961;52.416;-0.732;2022-08-07T12:04:37;101722.45;;;18.86;37.11
46241;BME280;31961;52.416;-0.732;2022-08-07T12:07:15;101720.20;;;18.79;36.95
46241;BME280;31961;52.416;-0.732;2022-08-07T12:09:50;101716.85;;;18.84;37.71
46241;BME280;31961;52.416;-0.732;2022-08-07T12:12:24;101707.27;;;19.47;36.10
46241;BME280;31961;52.416;-0.732;2022-08-07T12:14:58;101708.23;;;19.95;35.59
46241;BME280;31961;52.416;-0.732;2022-08-07T12:17:36;101712.72;;;19.50;35.84
46241;BME280;31961;52.416;-0.732;2022-08-07T12:20:08;101709.65;;;20.01;34.93
46241;BME280;31961;52.416;-0.732;2022-08-07T12:22:43;101718.74;;;20.28;34.31
46241;BME280;31961;52.416;-0.732;2022-08-07T12:25:19;101707.53;;;19.67;35.70
46241;BME280;31961;52.416;-0.732;2022-08-07T12:27:51;101702.90;;;20.15;34.78
46241;BME280;31961;52.416;-0.732;2022-08-07T12:30:25;101709.58;;;20.42;33.91
46241;BME280;31961;52.416;-0.732;2022-08-07T12:33:02;101708.20;;;20.33;34.39
46241;BME280;31961;52.416;-0.732;2022-08-07T12:35:33;101703.75;;;20.99;32.91
46241;BME280;31961;52.416;-0.732;2022-08-07T12:38:02;101703.31;;;20.62;33.61
46241;BME280;31961;52.416;-0.732;2022-08-07T12:40:33;101702.86;;;21.42;32.97
46241;BME280;31961;52.416;-0.732;2022-08-07T12:43:02;101703.94;;;21.26;32.73
46241;BME280;31961;52.416;-0.732;2022-08-07T12:45:36;101705.02;;;20.81;33.31
46241;BME280;31961;52.416;-0.732;2022-08-07T12:48:12;101705.02;;;21.00;33.29
46241;BME280;31961;52.416;-0.732;2022-08-07T12:50:47;101699.91;;;21.24;31.62
46241;BME280;31961;52.416;-0.732;2022-08-07T12:53:24;101695.96;;;22.36;29.63
46241;BME280;31961;52.416;-0.732;2022-08-07T12:56:01;101699.86;;;21.01;32.65
46241;BME280;31961;52.416;-0.732;2022-08-07T12:58:32;101698.26;;;21.41;32.29
46241;BME280;31961;52.416;-0.732;2022-08-07T13:01:07;101689.46;;;22.09;31.31
46241;BME280;31961;52.416;-0.732;2022-08-07T13:03:59;101680.23;;;22.11;30.50
46241;BME280;31961;52.416;-0.732;2022-08-07T13:06:43;101676.24;;;21.50;31.02
46241;BME280;31961;52.416;-0.732;2022-08-07T13:09:26;101689.33;;;22.62;29.10